sensor_id;sensor_type;location;lat;lon;timestamp;temperature;humidity
16974;DHT22;8603;46.944;7.412;2023-03-16T00:00:11;-0.90;99.90
16974;DHT22;8603;46.944;7.412;2023-03-16T00:02:39;-0.80;99.90
16974;DHT22;8603;46.944;7.412;2023-03-16T00:05:06;-0.80;99.90
16974;DHT22;8603;46.944;7.412;2023-03-16T00:07:32;-0.70;99.90
16974;DHT22;8603;46.944;7.412;2023-03-16T00:09:58;-0.70;99.90
16974;DHT22;8603;46.944;7.412;2023-03-16T00:12:24;-0.60;99.90
16974;DHT22;8603;46.944;7.412;2023-03-16T00:14:51;-0.70;99.90
16974;DHT22;8603;46.944;7.412;2023-03-16T00:17:18;-0.70;99.90
16974;DHT22;8603;46.944;7.412;2023-03-16T00:19:48;-0.80;99.90
16974;DHT22;8603;46.944;7.412;2023-03-16T00:22:15;-0.70;99.90
16974;DHT22;8603;46.944;7.412;2023-03-16T00:24:42;-0.70;99.90
16974;DHT22;8603;46.944;7.412;2023-03-16T00:27:12;-0.80;99.90
16974;DHT22;8603;46.944;7.412;2023-03-16T00:29:41;-0.70;99.90
16974;DHT22;8603;46.944;7.412;2023-03-16T00:32:15;-0.70;99.90
16974;DHT22;8603;46.944;7.412;2023-03-16T00:34:42;-0.70;99.90
16974;DHT22;8603;46.944;7.412;2023-03-16T00:37:08;-0.80;99.90
16974;DHT22;8603;46.944;7.412;2023-03-16T00:39:33;-0.90;99.90
16974;DHT22;8603;46.944;7.412;2023-03-16T00:42:00;-1.00;99.90
16974;DHT22;8603;46.944;7.412;2023-03-16T00:44:26;-1.10;99.90
16974;DHT22;8603;46.944;7.412;2023-03-16T00:46:52;-1.20;99.90
16974;DHT22;8603;46.944;7.412;2023-03-16T00:49:18;-1.30;99.90
16974;DHT22;8603;46.944;7.412;2023-03-16T00:51:43;-1.30;99.90
16974;DHT22;8603;46.944;7.412;2023-03-16T00:54:11;-1.40;99.90
16974;DHT22;8603;46.944;7.412;2023-03-16T00:56:36;-1.50;99.90
16974;DHT22;8603;46.944;7.412;2023-03-16T00:59:02;-1.50;99.90
16974;DHT22;8603;46.944;7.412;2023-03-16T01:01:30;-1.50;99.90
16974;DHT22;8603;46.944;7.412;2023-03-16T01:03:57;-1.50;99.90
16974;DHT22;8603;46.944;7.412;2023-03-16T01:06:24;-1.60;99.90
16974;DHT22;8603;46.944;7.412;2023-03-16T01:08:51;-1.60;99.90
16974;DHT22;8603;46.944;7.412;2023-03-16T01:11:20;-1.60;99.90
16974;DHT22;8603;46.944;7.412;2023-03-16T01:13:47;-1.60;99.90
16974;DHT22;8603;46.944;7.412;2023-03-16T01:16:15;-1.70;99.90
16974;DHT22;8603;46.944;7.412;2023-03-16T01:18:41;-1.70;99.90
16974;DHT22;8603;46.944;7.412;2023-03-16T01:21:08;-1.80;99.90
16974;DHT22;8603;46.944;7.412;2023-03-16T01:23:35;-1.80;99.90
16974;DHT22;8603;46.944;7.412;2023-03-16T01:26:00;-1.80;99.90
16974;DHT22;8603;46.944;7.412;2023-03-16T01:28:29;-1.80;99.90
16974;DHT22;8603;46.944;7.412;2023-03-16T01:31:00;-1.80;99.90
16974;DHT22;8603;46.944;7.412;2023-03-16T01:33:27;-1.80;99.90
16974;DHT22;8603;46.944;7.412;2023-03-16T01:35:54;-1.80;99.90
16974;DHT22;8603;46.944;7.412;2023-03-16T01:38:21;-1.80;99.90
16974;DHT22;8603;46.944;7.412;2023-03-16T01:40:48;-1.80;99.90
16974;DHT22;8603;46.944;7.412;2023-03-16T01:43:17;-1.70;99.90
16974;DHT22;8603;46.944;7.412;2023-03-16T01:48:39;-1.70;99.90
16974;DHT22;8603;46.944;7.412;2023-03-16T01:51:18;-1.60;99.90
16974;DHT22;8603;46.944;7.412;2023-03-16T01:53:46;-1.50;99.90
16974;DHT22;8603;46.944;7.412;2023-03-16T01:56:15;-1.50;99.90
16974;DHT22;8603;46.944;7.412;2023-03-16T01:58:43;-1.60;99.90
16974;DHT22;8603;46.944;7.412;2023-03-16T02:01:11;-1.60;99.90
16974;DHT22;8603;46.944;7.412;2023-03-16T02:03:38;-1.70;99.90
16974;DHT22;8603;46.944;7.412;2023-03-16T02:06:10;-1.70;99.90
16974;DHT22;8603;46.944;7.412;2023-03-16T02:08:38;-1.80;99.90
16974;DHT22;8603;46.944;7.412;2023-03-16T02:11:06;-1.80;99.90
16974;DHT22;8603;46.944;7.412;2023-03-16T02:13:33;-1.90;99.90
16974;DHT22;8603;46.944;7.412;2023-03-16T02:16:02;-1.90;99.90
16974;DHT22;8603;46.944;7.412;2023-03-16T02:18:30;-1.90;99.90
16974;DHT22;8603;46.944;7.412;2023-03-16T02:23:26;-2.00;99.90
16974;DHT22;8603;46.944;7.412;2023-03-16T02:26:17;-2.00;99.90
16974;DHT22;8603;46.944;7.412;2023-03-16T02:31:40;-2.00;99.90
16974;DHT22;8603;46.944;7.412;2023-03-16T02:34:06;-2.10;99.90
16974;DHT22;8603;46.944;7.412;2023-03-16T02:36:33;-2.10;99.90
16974;DHT22;8603;46.944;7.412;2023-03-16T02:38:59;-2.20;99.90
16974;DHT22;8603;46.944;7.412;2023-03-16T02:41:24;-2.20;99.90
16974;DHT22;8603;46.944;7.412;2023-03-16T02:43:57;-2.20;99.90
16974;DHT22;8603;46.944;7.412;2023-03-16T02:46:27;-2.20;99.90
16974;DHT22;8603;46.944;7.412;2023-03-16T02:49:06;-2.30;99.90
16974;DHT22;8603;46.944;7.412;2023-03-16T02:51:32;-2.30;99.90
16974;DHT22;8603;46.944;7.412;2023-03-16T02:53:58;-2.30;99.90
16974;DHT22;8603;46.944;7.412;2023-03-16T02:56:24;-2.30;99.90
16974;DHT22;8603;46.944;7.412;2023-03-16T02:58:49;-2.30;99.90
16974;DHT22;8603;46.944;7.412;2023-03-16T03:01:15;-2.40;99.90
16974;DHT22;8603;46.944;7.412;2023-03-16T03:03:41;-2.40;99.90
16974;DHT22;8603;46.944;7.412;2023-03-16T03:06:08;-2.40;99.90
16974;DHT22;8603;46.944;7.412;2023-03-16T03:08:34;-2.40;99.90
16974;DHT22;8603;46.944;7.412;2023-03-16T03:10:59;-2.40;99.90
16974;DHT22;8603;46.944;7.412;2023-03-16T03:13:25;-2.40;99.90
16974;DHT22;8603;46.944;7.412;2023-03-16T03:15:50;-2.40;99.90
16974;DHT22;8603;46.944;7.412;2023-03-16T03:18:17;-2.40;99.90
16974;DHT22;8603;46.944;7.412;2023-03-16T03:20:42;-2.40;99.90
16974;DHT22;8603;46.944;7.412;2023-03-16T03:23:08;-2.40;99.90
16974;DHT22;8603;46.944;7.412;2023-03-16T03:25:34;-2.40;99.90
16974;DHT22;8603;46.944;7.412;2023-03-16T03:28:00;-2.40;99.90
16974;DHT22;8603;46.944;7.412;2023-03-16T03:30:26;-2.40;99.90
16974;DHT22;8603;46.944;7.412;2023-03-16T03:32:52;-2.40;99.90
16974;DHT22;8603;46.944;7.412;2023-03-16T03:35:19;-2.40;99.90
16974;DHT22;8603;46.944;7.412;2023-03-16T03:37:46;-2.40;99.90
16974;DHT22;8603;46.944;7.412;2023-03-16T03:40:13;-2.50;99.90
16974;DHT22;8603;46.944;7.412;2023-03-16T03:42:40;-2.50;99.90
16974;DHT22;8603;46.944;7.412;2023-03-16T03:45:06;-2.50;99.90
16974;DHT22;8603;46.944;7.412;2023-03-16T03:47:33;-2.60;99.90
16974;DHT22;8603;46.944;7.412;2023-03-16T03:49:58;-2.60;99.90
16974;DHT22;8603;46.944;7.412;2023-03-16T03:52:24;-2.60;99.90
16974;DHT22;8603;46.944;7.412;2023-03-16T03:54:50;-2.60;99.90
16974;DHT22;8603;46.944;7.412;2023-03-16T03:57:16;-2.70;99.90
16974;DHT22;8603;46.944;7.412;2023-03-16T03:59:41;-2.70;99.90
16974;DHT22;8603;46.944;7.412;2023-03-16T04:02:09;-2.70;99.90
16974;DHT22;8603;46.944;7.412;2023-03-16T04:04:35;-2.70;99.90
16974;DHT22;8603;46.944;7.412;2023-03-16T04:07:01;-2.70;99.90
16974;DHT22;8603;46.944;7.412;2023-03-16T04:09:26;-2.70;99.90
16974;DHT22;8603;46.944;7.412;2023-03-16T04:11:52;-2.70;99.90
16974;DHT22;8603;46.944;7.412;2023-03-16T04:14:18;-2.70;99.90
16974;DHT22;8603;46.944;7.412;2023-03-16T04:16:43;-2.70;99.90
16974;DHT22;8603;46.944;7.412;2023-03-16T04:19:10;-2.70;99.90
16974;DHT22;8603;46.944;7.412;2023-03-16T04:21:35;-2.70;99.90
16974;DHT22;8603;46.944;7.412;2023-03-16T04:24:01;-2.70;99.90
16974;DHT22;8603;46.944;7.412;2023-03-16T04:26:30;-2.70;99.90
16974;DHT22;8603;46.944;7.412;2023-03-16T04:28:55;-2.70;99.90
16974;DHT22;8603;46.944;7.412;2023-03-16T04:31:21;-2.70;99.90
16974;DHT22;8603;46.944;7.412;2023-03-16T04:33:47;-2.70;99.90
16974;DHT22;8603;46.944;7.412;2023-03-16T04:36:12;-2.70;99.90
16974;DHT22;8603;46.944;7.412;2023-03-16T04:38:38;-2.70;99.90
16974;DHT22;8603;46.944;7.412;2023-03-16T04:41:05;-2.70;99.90
16974;DHT22;8603;46.944;7.412;2023-03-16T04:43:31;-2.80;99.90
16974;DHT22;8603;46.944;7.412;2023-03-16T04:46:00;-2.80;99.90
16974;DHT22;8603;46.944;7.412;2023-03-16T04:48:30;-2.80;99.90
16974;DHT22;8603;46.944;7.412;2023-03-16T04:50:57;-2.80;99.90
16974;DHT22;8603;46.944;7.412;2023-03-16T04:53:22;-2.80;99.90
16974;DHT22;8603;46.944;7.412;2023-03-16T04:55:48;-2.80;99.90
16974;DHT22;8603;46.944;7.412;2023-03-16T04:58:14;-2.90;99.90
16974;DHT22;8603;46.944;7.412;2023-03-16T05:00:39;-2.90;99.90
16974;DHT22;8603;46.944;7.412;2023-03-16T05:03:06;-2.90;99.90
16974;DHT22;8603;46.944;7.412;2023-03-16T05:05:32;-2.90;99.90
16974;DHT22;8603;46.944;7.412;2023-03-16T05:07:59;-2.80;99.90
16974;DHT22;8603;46.944;7.412;2023-03-16T05:10:26;-2.90;99.90
16974;DHT22;8603;46.944;7.412;2023-03-16T05:12:51;-3.00;99.90
16974;DHT22;8603;46.944;7.412;2023-03-16T05:15:17;-2.90;99.90
16974;DHT22;8603;46.944;7.412;2023-03-16T05:17:42;-3.00;99.90
16974;DHT22;8603;46.944;7.412;2023-03-16T05:20:10;-3.00;99.90
16974;DHT22;8603;46.944;7.412;2023-03-16T05:22:39;-3.00;99.90
16974;DHT22;8603;46.944;7.412;2023-03-16T05:25:05;-3.00;99.90
16974;DHT22;8603;46.944;7.412;2023-03-16T05:27:31;-3.00;99.90
16974;DHT22;8603;46.944;7.412;2023-03-16T05:29:58;-3.00;99.90
16974;DHT22;8603;46.944;7.412;2023-03-16T05:32:26;-3.10;99.90
16974;DHT22;8603;46.944;7.412;2023-03-16T05:34:51;-3.00;99.90
16974;DHT22;8603;46.944;7.412;2023-03-16T05:37:18;-2.90;99.90
16974;DHT22;8603;46.944;7.412;2023-03-16T05:39:43;-2.90;99.90
16974;DHT22;8603;46.944;7.412;2023-03-16T05:42:09;-2.90;99.90
16974;DHT22;8603;46.944;7.412;2023-03-16T05:44:35;-2.90;99.90
16974;DHT22;8603;46.944;7.412;2023-03-16T05:47:01;-2.90;99.90
16974;DHT22;8603;46.944;7.412;2023-03-16T05:49:26;-2.80;99.90
16974;DHT22;8603;46.944;7.412;2023-03-16T05:51:52;-2.80;99.90
16974;DHT22;8603;46.944;7.412;2023-03-16T05:54:18;-2.70;99.90
16974;DHT22;8603;46.944;7.412;2023-03-16T05:56:44;-2.60;99.90
16974;DHT22;8603;46.944;7.412;2023-03-16T06:06:55;-2.30;99.90
16974;DHT22;8603;46.944;7.412;2023-03-16T06:09:23;-2.30;99.90
16974;DHT22;8603;46.944;7.412;2023-03-16T06:11:51;-2.10;99.90
16974;DHT22;8603;46.944;7.412;2023-03-16T06:14:17;-1.90;99.90
16974;DHT22;8603;46.944;7.412;2023-03-16T06:16:43;-1.40;99.90
16974;DHT22;8603;46.944;7.412;2023-03-16T06:19:09;-0.90;99.90
16974;DHT22;8603;46.944;7.412;2023-03-16T06:21:34;-0.20;99.90
16974;DHT22;8603;46.944;7.412;2023-03-16T06:24:00;0.90;99.90
16974;DHT22;8603;46.944;7.412;2023-03-16T06:26:26;1.90;99.90
16974;DHT22;8603;46.944;7.412;2023-03-16T06:28:52;3.10;99.90
16974;DHT22;8603;46.944;7.412;2023-03-16T06:31:18;4.30;99.90
16974;DHT22;8603;46.944;7.412;2023-03-16T06:33:46;5.70;99.90
16974;DHT22;8603;46.944;7.412;2023-03-16T06:36:12;7.20;99.90
16974;DHT22;8603;46.944;7.412;2023-03-16T06:38:39;9.00;99.90
16974;DHT22;8603;46.944;7.412;2023-03-16T06:41:04;10.30;99.90
16974;DHT22;8603;46.944;7.412;2023-03-16T06:46:40;11.80;99.90
16974;DHT22;8603;46.944;7.412;2023-03-16T06:49:06;11.90;99.90
16974;DHT22;8603;46.944;7.412;2023-03-16T07:05:51;14.80;99.90
16974;DHT22;8603;46.944;7.412;2023-03-16T07:08:35;15.60;96.00
16974;DHT22;8603;46.944;7.412;2023-03-16T07:11:03;16.60;94.20
16974;DHT22;8603;46.944;7.412;2023-03-16T07:13:46;16.20;91.70
16974;DHT22;8603;46.944;7.412;2023-03-16T07:16:54;15.70;91.90
16974;DHT22;8603;46.944;7.412;2023-03-16T07:19:37;15.90;91.60
16974;DHT22;8603;46.944;7.412;2023-03-16T07:25:29;17.70;89.90
16974;DHT22;8603;46.944;7.412;2023-03-16T07:27:56;17.90;86.10
16974;DHT22;8603;46.944;7.412;2023-03-16T07:30:47;18.60;86.60
16974;DHT22;8603;46.944;7.412;2023-03-16T07:33:16;16.90;84.00
16974;DHT22;8603;46.944;7.412;2023-03-16T07:35:42;16.40;86.20
16974;DHT22;8603;46.944;7.412;2023-03-16T07:38:19;16.10;85.00
16974;DHT22;8603;46.944;7.412;2023-03-16T07:40:55;15.70;85.00
16974;DHT22;8603;46.944;7.412;2023-03-16T07:47:02;14.50;87.00
16974;DHT22;8603;46.944;7.412;2023-03-16T07:50:09;13.20;90.40
16974;DHT22;8603;46.944;7.412;2023-03-16T07:52:52;11.80;92.00
16974;DHT22;8603;46.944;7.412;2023-03-16T07:55:18;10.60;93.40
16974;DHT22;8603;46.944;7.412;2023-03-16T07:57:45;10.20;95.30
16974;DHT22;8603;46.944;7.412;2023-03-16T08:00:13;10.50;95.40
16974;DHT22;8603;46.944;7.412;2023-03-16T08:02:39;11.60;94.50
16974;DHT22;8603;46.944;7.412;2023-03-16T08:05:12;13.10;92.70
16974;DHT22;8603;46.944;7.412;2023-03-16T08:07:47;14.30;92.00
16974;DHT22;8603;46.944;7.412;2023-03-16T08:10:26;15.10;91.00
16974;DHT22;8603;46.944;7.412;2023-03-16T08:13:15;15.60;87.70
16974;DHT22;8603;46.944;7.412;2023-03-16T08:16:15;15.80;87.50
16974;DHT22;8603;46.944;7.412;2023-03-16T08:18:41;17.00;87.00
16974;DHT22;8603;46.944;7.412;2023-03-16T08:21:39;18.00;84.40
16974;DHT22;8603;46.944;7.412;2023-03-16T08:24:32;19.40;82.70
16974;DHT22;8603;46.944;7.412;2023-03-16T08:26:58;21.00;80.20
16974;DHT22;8603;46.944;7.412;2023-03-16T08:29:24;22.30;77.50
16974;DHT22;8603;46.944;7.412;2023-03-16T08:31:54;23.30;74.30
16974;DHT22;8603;46.944;7.412;2023-03-16T08:34:24;24.40;72.40
16974;DHT22;8603;46.944;7.412;2023-03-16T08:36:51;24.70;68.80
16974;DHT22;8603;46.944;7.412;2023-03-16T08:39:17;25.70;66.30
16974;DHT22;8603;46.944;7.412;2023-03-16T08:41:42;26.40;63.80
16974;DHT22;8603;46.944;7.412;2023-03-16T08:44:10;27.00;62.20
16974;DHT22;8603;46.944;7.412;2023-03-16T08:46:37;27.50;60.60
16974;DHT22;8603;46.944;7.412;2023-03-16T08:49:03;27.40;58.60
16974;DHT22;8603;46.944;7.412;2023-03-16T08:51:31;27.00;57.80
16974;DHT22;8603;46.944;7.412;2023-03-16T08:53:57;26.70;57.60
16974;DHT22;8603;46.944;7.412;2023-03-16T08:56:23;26.00;56.80
16974;DHT22;8603;46.944;7.412;2023-03-16T08:58:48;25.90;56.70
16974;DHT22;8603;46.944;7.412;2023-03-16T09:01:16;26.50;55.90
16974;DHT22;8603;46.944;7.412;2023-03-16T09:03:44;27.10;55.20
16974;DHT22;8603;46.944;7.412;2023-03-16T09:06:12;27.20;54.70
16974;DHT22;8603;46.944;7.412;2023-03-16T09:08:39;27.20;54.40
16974;DHT22;8603;46.944;7.412;2023-03-16T09:11:10;27.30;53.40
16974;DHT22;8603;46.944;7.412;2023-03-16T09:14:02;26.60;53.90
16974;DHT22;8603;46.944;7.412;2023-03-16T09:19:27;25.50;53.80
16974;DHT22;8603;46.944;7.412;2023-03-16T09:21:56;24.40;54.00
16974;DHT22;8603;46.944;7.412;2023-03-16T09:24:22;24.60;54.60
16974;DHT22;8603;46.944;7.412;2023-03-16T09:26:48;24.60;53.40
16974;DHT22;8603;46.944;7.412;2023-03-16T09:29:20;24.60;53.70
16974;DHT22;8603;46.944;7.412;2023-03-16T09:31:46;24.40;53.70
16974;DHT22;8603;46.944;7.412;2023-03-16T09:34:12;23.30;54.00
16974;DHT22;8603;46.944;7.412;2023-03-16T09:36:38;22.00;56.00
16974;DHT22;8603;46.944;7.412;2023-03-16T09:39:05;19.40;56.00
16974;DHT22;8603;46.944;7.412;2023-03-16T09:46:58;15.00;61.50
16974;DHT22;8603;46.944;7.412;2023-03-16T09:49:29;14.00;64.00
16974;DHT22;8603;46.944;7.412;2023-03-16T09:55:09;12.80;66.70
16974;DHT22;8603;46.944;7.412;2023-03-16T09:57:38;12.40;67.20
16974;DHT22;8603;46.944;7.412;2023-03-16T10:00:19;12.40;69.70
16974;DHT22;8603;46.944;7.412;2023-03-16T10:05:56;12.70;68.80
16974;DHT22;8603;46.944;7.412;2023-03-16T10:08:25;12.90;67.80
16974;DHT22;8603;46.944;7.412;2023-03-16T10:11:17;12.50;68.70
16974;DHT22;8603;46.944;7.412;2023-03-16T10:13:57;12.30;69.30
16974;DHT22;8603;46.944;7.412;2023-03-16T10:16:56;12.20;68.90
16974;DHT22;8603;46.944;7.412;2023-03-16T10:19:44;11.90;67.60
16974;DHT22;8603;46.944;7.412;2023-03-16T10:22:18;11.90;68.20
16974;DHT22;8603;46.944;7.412;2023-03-16T10:27:39;11.90;68.90
16974;DHT22;8603;46.944;7.412;2023-03-16T10:30:26;11.80;68.20
16974;DHT22;8603;46.944;7.412;2023-03-16T10:32:53;11.60;69.50
16974;DHT22;8603;46.944;7.412;2023-03-16T10:35:40;11.10;67.60
16974;DHT22;8603;46.944;7.412;2023-03-16T10:38:45;11.20;69.60
16974;DHT22;8603;46.944;7.412;2023-03-16T10:44:12;11.30;70.60
16974;DHT22;8603;46.944;7.412;2023-03-16T10:46:47;11.40;70.40
16974;DHT22;8603;46.944;7.412;2023-03-16T10:49:22;11.50;69.10
16974;DHT22;8603;46.944;7.412;2023-03-16T10:51:51;11.60;69.90
16974;DHT22;8603;46.944;7.412;2023-03-16T10:54:28;11.50;70.10
16974;DHT22;8603;46.944;7.412;2023-03-16T10:56:56;11.40;70.10
16974;DHT22;8603;46.944;7.412;2023-03-16T10:59:33;11.20;70.60
16974;DHT22;8603;46.944;7.412;2023-03-16T11:02:15;11.10;74.90
16974;DHT22;8603;46.944;7.412;2023-03-16T11:04:41;10.90;72.50
16974;DHT22;8603;46.944;7.412;2023-03-16T11:07:07;10.40;73.30
16974;DHT22;8603;46.944;7.412;2023-03-16T11:09:39;10.50;73.40
16974;DHT22;8603;46.944;7.412;2023-03-16T11:12:25;10.60;74.10
16974;DHT22;8603;46.944;7.412;2023-03-16T11:14:51;10.60;75.00
16974;DHT22;8603;46.944;7.412;2023-03-16T11:17:27;10.60;75.40
16974;DHT22;8603;46.944;7.412;2023-03-16T11:20:01;10.70;74.70
16974;DHT22;8603;46.944;7.412;2023-03-16T11:22:31;10.70;74.20
16974;DHT22;8603;46.944;7.412;2023-03-16T11:25:13;10.70;74.70
16974;DHT22;8603;46.944;7.412;2023-03-16T11:30:36;10.90;75.80
16974;DHT22;8603;46.944;7.412;2023-03-16T11:33:08;11.00;76.00
16974;DHT22;8603;46.944;7.412;2023-03-16T11:35:45;11.20;73.60
16974;DHT22;8603;46.944;7.412;2023-03-16T11:41:02;11.20;74.10
16974;DHT22;8603;46.944;7.412;2023-03-16T11:43:54;11.40;73.00
16974;DHT22;8603;46.944;7.412;2023-03-16T11:46:43;11.50;73.30
16974;DHT22;8603;46.944;7.412;2023-03-16T11:49:13;11.60;74.10
16974;DHT22;8603;46.944;7.412;2023-03-16T11:52:18;11.80;72.80
16974;DHT22;8603;46.944;7.412;2023-03-16T11:57:56;12.00;72.60
16974;DHT22;8603;46.944;7.412;2023-03-16T12:03:46;12.10;69.60
16974;DHT22;8603;46.944;7.412;2023-03-16T12:06:29;12.10;70.90
16974;DHT22;8603;46.944;7.412;2023-03-16T12:09:07;12.10;69.60
16974;DHT22;8603;46.944;7.412;2023-03-16T12:14:17;12.10;70.10
16974;DHT22;8603;46.944;7.412;2023-03-16T12:16:55;12.20;70.50
16974;DHT22;8603;46.944;7.412;2023-03-16T12:19:35;12.30;71.00
16974;DHT22;8603;46.944;7.412;2023-03-16T12:22:12;12.40;70.70
16974;DHT22;8603;46.944;7.412;2023-03-16T12:24:42;12.50;71.30
16974;DHT22;8603;46.944;7.412;2023-03-16T12:27:16;12.70;69.10
16974;DHT22;8603;46.944;7.412;2023-03-16T12:32:38;12.90;68.30
16974;DHT22;8603;46.944;7.412;2023-03-16T12:41:21;12.90;69.00
16974;DHT22;8603;46.944;7.412;2023-03-16T12:48:53;13.10;68.70
16974;DHT22;8603;46.944;7.412;2023-03-16T12:51:38;13.00;68.10
16974;DHT22;8603;46.944;7.412;2023-03-16T12:54:17;12.60;69.30
16974;DHT22;8603;46.944;7.412;2023-03-16T12:56:44;12.60;67.70
16974;DHT22;8603;46.944;7.412;2023-03-16T12:59:19;12.60;69.10
16974;DHT22;8603;46.944;7.412;2023-03-16T13:01:49;12.50;69.60
16974;DHT22;8603;46.944;7.412;2023-03-16T13:04:22;12.50;70.60
16974;DHT22;8603;46.944;7.412;2023-03-16T13:07:03;12.40;69.60
16974;DHT22;8603;46.944;7.412;2023-03-16T13:09:30;12.40;69.70
16974;DHT22;8603;46.944;7.412;2023-03-16T13:11:57;12.40;70.00
16974;DHT22;8603;46.944;7.412;2023-03-16T13:14:41;12.50;69.40
16974;DHT22;8603;46.944;7.412;2023-03-16T13:19:40;12.50;70.00
16974;DHT22;8603;46.944;7.412;2023-03-16T13:25:23;12.20;68.20
16974;DHT22;8603;46.944;7.412;2023-03-16T13:28:00;12.10;68.80
16974;DHT22;8603;46.944;7.412;2023-03-16T13:30:45;12.10;70.10
16974;DHT22;8603;46.944;7.412;2023-03-16T13:33:22;12.10;69.60
16974;DHT22;8603;46.944;7.412;2023-03-16T13:35:51;12.20;69.30
16974;DHT22;8603;46.944;7.412;2023-03-16T13:38:20;12.10;70.00
16974;DHT22;8603;46.944;7.412;2023-03-16T13:40:57;12.10;69.30
16974;DHT22;8603;46.944;7.412;2023-03-16T13:43:28;12.20;69.70
16974;DHT22;8603;46.944;7.412;2023-03-16T13:45:54;12.30;69.80
16974;DHT22;8603;46.944;7.412;2023-03-16T13:48:21;12.40;69.40
16974;DHT22;8603;46.944;7.412;2023-03-16T13:50:54;12.50;70.90
16974;DHT22;8603;46.944;7.412;2023-03-16T13:53:28;12.70;70.80
16974;DHT22;8603;46.944;7.412;2023-03-16T13:55:55;12.90;70.20
16974;DHT22;8603;46.944;7.412;2023-03-16T13:58:35;12.90;70.50
16974;DHT22;8603;46.944;7.412;2023-03-16T14:01:04;12.90;70.40
16974;DHT22;8603;46.944;7.412;2023-03-16T14:03:37;13.10;69.60
16974;DHT22;8603;46.944;7.412;2023-03-16T14:06:04;13.10;70.30
16974;DHT22;8603;46.944;7.412;2023-03-16T14:08:30;13.20;71.00
16974;DHT22;8603;46.944;7.412;2023-03-16T14:10:57;13.20;71.60
16974;DHT22;8603;46.944;7.412;2023-03-16T14:16:12;13.00;71.20
16974;DHT22;8603;46.944;7.412;2023-03-16T14:18:40;12.80;71.70
16974;DHT22;8603;46.944;7.412;2023-03-16T14:21:41;12.80;71.80
16974;DHT22;8603;46.944;7.412;2023-03-16T14:24:04;12.90;72.90
16974;DHT22;8603;46.944;7.412;2023-03-16T14:31:43;13.30;72.60
16974;DHT22;8603;46.944;7.412;2023-03-16T14:37:11;13.40;71.90
16974;DHT22;8603;46.944;7.412;2023-03-16T14:39:36;13.40;72.50
16974;DHT22;8603;46.944;7.412;2023-03-16T14:42:10;13.50;72.20
16974;DHT22;8603;46.944;7.412;2023-03-16T14:44:38;13.50;72.70
16974;DHT22;8603;46.944;7.412;2023-03-16T14:47:05;13.40;72.20
16974;DHT22;8603;46.944;7.412;2023-03-16T14:49:36;13.40;73.30
16974;DHT22;8603;46.944;7.412;2023-03-16T14:52:13;13.30;73.80
16974;DHT22;8603;46.944;7.412;2023-03-16T14:54:42;13.20;74.70
16974;DHT22;8603;46.944;7.412;2023-03-16T14:57:15;13.10;74.40
16974;DHT22;8603;46.944;7.412;2023-03-16T14:59:41;13.00;74.80
16974;DHT22;8603;46.944;7.412;2023-03-16T15:02:18;12.90;75.30
16974;DHT22;8603;46.944;7.412;2023-03-16T15:04:46;12.90;75.60
16974;DHT22;8603;46.944;7.412;2023-03-16T15:07:22;12.90;76.40
16974;DHT22;8603;46.944;7.412;2023-03-16T15:09:50;12.80;76.10
16974;DHT22;8603;46.944;7.412;2023-03-16T15:12:18;12.80;75.00
16974;DHT22;8603;46.944;7.412;2023-03-16T15:14:45;12.70;74.30
16974;DHT22;8603;46.944;7.412;2023-03-16T15:17:30;12.60;75.00
16974;DHT22;8603;46.944;7.412;2023-03-16T15:19:56;12.60;75.70
16974;DHT22;8603;46.944;7.412;2023-03-16T15:22:27;12.50;76.80
16974;DHT22;8603;46.944;7.412;2023-03-16T15:24:58;12.60;75.60
16974;DHT22;8603;46.944;7.412;2023-03-16T15:27:29;12.60;75.70
16974;DHT22;8603;46.944;7.412;2023-03-16T15:29:57;12.50;76.30
16974;DHT22;8603;46.944;7.412;2023-03-16T15:32:23;12.40;76.40
16974;DHT22;8603;46.944;7.412;2023-03-16T15:34:48;12.40;76.40
16974;DHT22;8603;46.944;7.412;2023-03-16T15:37:15;12.40;76.90
16974;DHT22;8603;46.944;7.412;2023-03-16T15:39:45;12.40;77.10
16974;DHT22;8603;46.944;7.412;2023-03-16T15:42:17;12.40;76.80
16974;DHT22;8603;46.944;7.412;2023-03-16T15:44:44;12.50;76.80
16974;DHT22;8603;46.944;7.412;2023-03-16T15:47:11;12.50;76.90
16974;DHT22;8603;46.944;7.412;2023-03-16T15:49:37;12.60;76.90
16974;DHT22;8603;46.944;7.412;2023-03-16T15:52:27;12.50;76.50
16974;DHT22;8603;46.944;7.412;2023-03-16T15:55:23;12.30;77.60
16974;DHT22;8603;46.944;7.412;2023-03-16T16:00:43;12.30;77.20
16974;DHT22;8603;46.944;7.412;2023-03-16T16:03:22;12.30;77.60
16974;DHT22;8603;46.944;7.412;2023-03-16T16:05:49;12.40;77.60
16974;DHT22;8603;46.944;7.412;2023-03-16T16:08:15;12.40;78.10
16974;DHT22;8603;46.944;7.412;2023-03-16T16:10:41;12.50;79.60
16974;DHT22;8603;46.944;7.412;2023-03-16T16:13:13;12.50;80.20
16974;DHT22;8603;46.944;7.412;2023-03-16T16:15:45;12.50;81.30
16974;DHT22;8603;46.944;7.412;2023-03-16T16:18:44;12.50;80.10
16974;DHT22;8603;46.944;7.412;2023-03-16T16:21:20;12.70;81.20
16974;DHT22;8603;46.944;7.412;2023-03-16T16:23:53;12.70;81.20
16974;DHT22;8603;46.944;7.412;2023-03-16T16:26:27;12.60;80.60
16974;DHT22;8603;46.944;7.412;2023-03-16T16:28:59;12.50;81.90
16974;DHT22;8603;46.944;7.412;2023-03-16T16:31:29;12.40;83.50
16974;DHT22;8603;46.944;7.412;2023-03-16T16:33:58;12.40;82.40
16974;DHT22;8603;46.944;7.412;2023-03-16T16:36:26;12.30;81.70
16974;DHT22;8603;46.944;7.412;2023-03-16T16:38:56;12.10;82.50
16974;DHT22;8603;46.944;7.412;2023-03-16T16:41:29;12.00;84.20
16974;DHT22;8603;46.944;7.412;2023-03-16T16:43:57;12.00;85.60
16974;DHT22;8603;46.944;7.412;2023-03-16T16:46:25;11.90;85.60
16974;DHT22;8603;46.944;7.412;2023-03-16T16:49:04;11.70;86.20
16974;DHT22;8603;46.944;7.412;2023-03-16T16:51:43;11.70;86.50
16974;DHT22;8603;46.944;7.412;2023-03-16T16:54:19;11.60;86.60
16974;DHT22;8603;46.944;7.412;2023-03-16T16:56:48;11.50;88.00
16974;DHT22;8603;46.944;7.412;2023-03-16T16:59:20;11.30;89.00
16974;DHT22;8603;46.944;7.412;2023-03-16T17:01:48;11.20;89.80
16974;DHT22;8603;46.944;7.412;2023-03-16T17:04:18;11.00;90.20
16974;DHT22;8603;46.944;7.412;2023-03-16T17:06:48;10.90;90.60
16974;DHT22;8603;46.944;7.412;2023-03-16T17:09:20;10.80;91.20
16974;DHT22;8603;46.944;7.412;2023-03-16T17:11:46;10.70;91.60
16974;DHT22;8603;46.944;7.412;2023-03-16T17:14:17;10.60;92.40
16974;DHT22;8603;46.944;7.412;2023-03-16T17:16:43;10.60;91.80
16974;DHT22;8603;46.944;7.412;2023-03-16T17:19:23;10.50;91.90
16974;DHT22;8603;46.944;7.412;2023-03-16T17:21:50;10.30;91.90
16974;DHT22;8603;46.944;7.412;2023-03-16T17:24:16;10.30;91.70
16974;DHT22;8603;46.944;7.412;2023-03-16T17:26:50;10.20;92.00
16974;DHT22;8603;46.944;7.412;2023-03-16T17:29:21;10.10;92.00
16974;DHT22;8603;46.944;7.412;2023-03-16T17:31:49;10.00;92.60
16974;DHT22;8603;46.944;7.412;2023-03-16T17:34:17;9.80;93.60
16974;DHT22;8603;46.944;7.412;2023-03-16T17:36:44;9.80;93.50
16974;DHT22;8603;46.944;7.412;2023-03-16T17:39:21;9.60;93.80
16974;DHT22;8603;46.944;7.412;2023-03-16T17:41:59;9.40;94.90
16974;DHT22;8603;46.944;7.412;2023-03-16T17:44:32;9.20;95.10
16974;DHT22;8603;46.944;7.412;2023-03-16T17:46:58;9.10;95.40
16974;DHT22;8603;46.944;7.412;2023-03-16T17:49:24;9.00;95.70
16974;DHT22;8603;46.944;7.412;2023-03-16T17:51:58;8.80;96.00
16974;DHT22;8603;46.944;7.412;2023-03-16T17:54:26;8.70;96.40
16974;DHT22;8603;46.944;7.412;2023-03-16T17:56:54;8.60;97.10